Time;durP1;ratioP1;P1;durP2;ratioP2;P2;SDS_P1;SDS_P2;PMS_P1;PMS_P2;Temp;Humidity;BMP_temperature;BMP_pressure;BME280_temperature;BME280_humidity;BME280_pressure;Samples;Min_cycle;Max_cycle;Signal;HPM_P1;HPM_P2
2022/06/16 00:01:19;;;;;;;9.57;2.87;;;;;;;;;;4957286;28;20630;-84
2022/06/16 00:04:23;;;;;;;4.87;2.90;;;;;;;;;;4968248;28;20198;-84
2022/06/16 00:07:27;;;;;;;3.43;2.47;;;;;;;;;;4979157;28;20191;-84
2022/06/16 00:10:32;;;;;;;3.00;2.40;;;;;;;;;;4956234;28;20226;-84
2022/06/16 00:13:38;;;;;;;4.57;2.90;;;;;;;;;;4948382;29;20199;-85
2022/06/16 00:16:43;;;;;;;3.23;2.57;;;;;;;;;;4972130;28;20203;-84
2022/06/16 00:19:47;;;;;;;4.07;2.93;;;;;;;;;;4957176;28;20223;-84
2022/06/16 00:22:51;;;;;;;2.60;2.40;;;;;;;;;;4967925;28;20202;-84
2022/06/16 00:25:55;;;;;;;3.10;2.70;;;;;;;;;;4968331;28;20214;-84
2022/06/16 00:29:00;;;;;;;3.97;2.80;;;;;;;;;;4978702;28;20230;-84
2022/06/16 00:32:05;;;;;;;3.63;2.83;;;;;;;;;;4956303;28;20203;-84
2022/06/16 00:35:12;;;;;;;6.30;2.90;;;;;;;;;;4967596;28;20199;-85
2022/06/16 00:38:16;;;;;;;5.60;2.70;;;;;;;;;;4967711;28;20208;-85
2022/06/16 00:41:20;;;;;;;6.13;2.83;;;;;;;;;;4965893;28;20194;-86
2022/06/16 00:44:31;;;;;;;3.00;2.57;;;;;;;;;;4949578;29;20536;-84
2022/06/16 00:47:35;;;;;;;3.47;2.47;;;;;;;;;;4976750;28;20207;-84
2022/06/16 00:50:41;;;;;;;3.63;2.70;;;;;;;;;;4956532;28;20214;-84
2022/06/16 00:53:46;;;;;;;5.27;3.10;;;;;;;;;;4967416;28;20202;-84
2022/06/16 00:56:52;;;;;;;4.30;2.60;;;;;;;;;;4956959;28;20547;-85
2022/06/16 00:59:57;;;;;;;3.40;3.00;;;;;;;;;;4967207;28;20218;-84
2022/06/16 01:03:02;;;;;;;3.77;2.90;;;;;;;;;;4968030;28;20210;-84
2022/06/16 01:06:35;;;;;;;3.47;2.90;;;;;;;;;;4973414;28;20214;-84
2022/06/16 01:09:42;;;;;;;3.80;2.70;;;;;;;;;;4966833;28;20222;-85
2022/06/16 01:16:43;;;;;;;3.40;3.10;;;;;;;;;;4978099;28;20626;-84
2022/06/16 01:20:11;;;;;;;4.43;2.60;;;;;;;;;;4966451;28;20567;-84
2022/06/16 01:23:37;;;;;;;3.00;2.77;;;;;;;;;;4942002;28;20191;-84
2022/06/16 01:27:00;;;;;;;4.70;2.83;;;;;;;;;;4965925;28;20219;-85
2022/06/16 01:30:17;;;;;;;6.47;2.87;;;;;;;;;;5063457;22;20243;-85
2022/06/16 01:33:45;;;;;;;5.13;3.50;;;;;;;;;;5075847;28;20187;-84
2022/06/16 01:36:53;;;;;;;4.07;3.23;;;;;;;;;;5064692;28;20518;-84
2022/06/16 01:40:09;;;;;;;3.57;3.27;;;;;;;;;;5065262;28;20216;-84
2022/06/16 01:43:19;;;;;;;5.00;3.30;;;;;;;;;;5053482;28;20192;-84
2022/06/16 01:46:29;;;;;;;5.23;3.00;;;;;;;;;;5053238;28;20211;-85
2022/06/16 01:49:48;;;;;;;5.10;3.27;;;;;;;;;;5054512;28;20562;-84
2022/06/16 01:53:14;;;;;;;6.53;4.00;;;;;;;;;;5064348;28;20176;-85
2022/06/16 01:56:31;;;;;;;4.77;3.60;;;;;;;;;;5053263;28;20183;-84
2022/06/16 01:59:50;;;;;;;7.20;4.00;;;;;;;;;;5063812;28;20215;-85
2022/06/16 02:03:02;;;;;;;6.37;3.87;;;;;;;;;;5064385;28;20551;-84
2022/06/16 02:06:14;;;;;;;4.37;3.87;;;;;;;;;;5053248;28;20543;-84
2022/06/16 02:09:27;;;;;;;4.13;3.80;;;;;;;;;;5063832;28;20211;-84
2022/06/16 02:16:44;;;;;;;5.80;4.47;;;;;;;;;;5064446;28;20171;-85
2022/06/16 02:19:48;;;;;;;9.47;4.40;;;;;;;;;;5053442;28;20215;-85
2022/06/16 02:22:52;;;;;;;4.20;3.80;;;;;;;;;;5044666;28;20196;-85
2022/06/16 02:25:58;;;;;;;4.40;4.00;;;;;;;;;;5033424;28;20552;-84
2022/06/16 02:29:18;;;;;;;5.00;4.50;;;;;;;;;;5054304;28;20176;-87
2022/06/16 02:32:54;;;;;;;4.60;4.00;;;;;;;;;;5059493;28;20642;-87
2022/06/16 02:36:11;;;;;;;4.57;3.90;;;;;;;;;;5041394;28;20184;-87
2022/06/16 02:39:39;;;;;;;4.60;4.10;;;;;;;;;;5029212;28;20192;-87
2022/06/16 02:43:02;;;;;;;5.33;3.80;;;;;;;;;;5030395;28;20187;-87
2022/06/16 02:46:23;;;;;;;8.50;3.77;;;;;;;;;;5048170;28;20211;-87
2022/06/16 02:49:41;;;;;;;6.23;4.70;;;;;;;;;;5040874;28;20223;-87
2022/06/16 02:52:53;;;;;;;4.80;4.33;;;;;;;;;;5053050;28;20176;-84
2022/06/16 02:56:06;;;;;;;5.83;4.20;;;;;;;;;;5032951;28;20172;-84
2022/06/16 02:59:19;;;;;;;4.67;4.20;;;;;;;;;;5050201;28;20199;-85
2022/06/16 03:02:24;;;;;;;5.10;4.13;;;;;;;;;;5065129;28;20183;-85
2022/06/16 03:05:29;;;;;;;5.27;4.10;;;;;;;;;;5064613;28;20614;-84
2022/06/16 03:08:40;;;;;;;4.13;3.73;;;;;;;;;;5043835;28;20199;-84
2022/06/16 03:11:44;;;;;;;5.93;4.20;;;;;;;;;;5066710;28;20635;-84
2022/06/16 03:14:49;;;;;;;6.27;4.30;;;;;;;;;;5066942;28;20176;-84
2022/06/16 03:17:54;;;;;;;6.67;4.10;;;;;;;;;;5065964;28;20195;-85
2022/06/16 03:20:58;;;;;;;6.40;4.30;;;;;;;;;;5032038;28;20215;-84
2022/06/16 03:24:03;;;;;;;5.93;4.10;;;;;;;;;;5032052;28;20180;-84
2022/06/16 03:27:07;;;;;;;6.20;4.40;;;;;;;;;;5043105;28;20223;-84
2022/06/16 03:30:16;;;;;;;5.80;4.50;;;;;;;;;;5031788;28;20224;-84
2022/06/16 03:33:21;;;;;;;8.20;4.40;;;;;;;;;;5031170;28;20203;-84
2022/06/16 03:36:30;;;;;;;4.93;3.90;;;;;;;;;;5053797;28;20177;-84
2022/06/16 03:39:34;;;;;;;4.40;4.00;;;;;;;;;;5054205;28;20881;-85
2022/06/16 03:42:40;;;;;;;4.60;3.93;;;;;;;;;;5031816;28;20623;-84
2022/06/16 03:45:45;;;;;;;4.57;3.87;;;;;;;;;;5054840;28;20212;-84
2022/06/16 03:48:50;;;;;;;4.23;3.83;;;;;;;;;;5031602;28;20180;-84
2022/06/16 03:52:02;;;;;;;6.67;3.93;;;;;;;;;;5056907;28;20196;-84
2022/06/16 03:55:12;;;;;;;4.43;4.00;;;;;;;;;;5057016;28;20670;-84
2022/06/16 03:58:17;;;;;;;5.27;4.20;;;;;;;;;;5034872;28;20168;-84
2022/06/16 04:01:21;;;;;;;5.70;4.07;;;;;;;;;;5053370;28;20219;-85
2022/06/16 04:04:28;;;;;;;5.00;4.33;;;;;;;;;;5066923;28;20195;-85
2022/06/16 04:07:35;;;;;;;4.93;4.43;;;;;;;;;;5053304;28;20207;-84
2022/06/16 04:10:58;;;;;;;5.97;4.47;;;;;;;;;;5050282;28;20690;-84
2022/06/16 04:14:09;;;;;;;5.53;4.33;;;;;;;;;;5055599;28;20175;-85
2022/06/16 04:17:15;;;;;;;4.47;4.07;;;;;;;;;;5055836;28;20176;-86
2022/06/16 04:20:21;;;;;;;7.97;4.87;;;;;;;;;;5036385;28;20216;-84
2022/06/16 04:23:33;;;;;;;5.87;4.43;;;;;;;;;;5036337;28;20180;-85
2022/06/16 04:26:40;;;;;;;8.30;5.07;;;;;;;;;;5058346;28;20654;-84
2022/06/16 04:29:44;;;;;;;6.37;4.90;;;;;;;;;;5034981;28;20227;-86
2022/06/16 04:32:51;;;;;;;6.43;4.73;;;;;;;;;;5035792;28;20184;-84
2022/06/16 04:35:57;;;;;;;7.13;4.80;;;;;;;;;;5044350;28;20512;-86
2022/06/16 04:39:05;;;;;;;6.13;4.83;;;;;;;;;;5064708;28;20184;-86
2022/06/16 04:42:11;;;;;;;5.63;4.70;;;;;;;;;;5052127;28;20195;-86
2022/06/16 04:45:16;;;;;;;5.40;4.50;;;;;;;;;;5051921;28;20661;-86
2022/06/16 04:48:20;;;;;;;6.53;4.80;;;;;;;;;;5052191;28;20527;-86
2022/06/16 04:51:25;;;;;;;10.60;5.40;;;;;;;;;;5052136;28;20176;-86
2022/06/16 04:54:31;;;;;;;6.10;5.10;;;;;;;;;;5074764;28;20195;-86
2022/06/16 04:57:55;;;;;;;6.00;4.57;;;;;;;;;;5066219;28;20180;-86
2022/06/16 05:01:30;;;;;;;5.43;4.70;;;;;;;;;;5054911;28;20176;-87
2022/06/16 05:05:05;;;;;;;6.53;5.13;;;;;;;;;;5056074;28;20187;-86
2022/06/16 05:08:33;;;;;;;9.53;5.23;;;;;;;;;;5072218;28;20179;-86
2022/06/16 05:11:55;;;;;;;7.63;4.97;;;;;;;;;;5065881;28;20180;-86
2022/06/16 05:15:05;;;;;;;8.70;5.20;;;;;;;;;;5052079;28;20188;-85
2022/06/16 05:18:24;;;;;;;7.83;5.13;;;;;;;;;;5053383;28;20535;-87
2022/06/16 05:21:41;;;;;;;10.40;5.30;;;;;;;;;;5074666;28;20183;-86
2022/06/16 05:25:08;;;;;;;7.77;5.87;;;;;;;;;;5054744;28;20184;-87
2022/06/16 05:28:33;;;;;;;6.40;4.37;;;;;;;;;;5045515;28;20172;-86
2022/06/16 05:32:00;;;;;;;6.73;5.57;;;;;;;;;;5051500;28;20180;-87
2022/06/16 05:35:24;;;;;;;7.83;5.33;;;;;;;;;;5033936;28;20180;-86
2022/06/16 05:38:34;;;;;;;7.20;5.10;;;;;;;;;;5032681;28;20180;-87
2022/06/16 05:41:56;;;;;;;6.60;5.17;;;;;;;;;;5065212;28;20524;-86
2022/06/16 05:45:19;;;;;;;9.33;6.07;;;;;;;;;;5044776;28;20184;-86
2022/06/16 05:48:45;;;;;;;8.43;5.97;;;;;;;;;;5071633;28;20184;-86
2022/06/16 05:51:50;;;;;;;7.70;6.67;;;;;;;;;;5062474;28;20195;-86
2022/06/16 05:55:06;;;;;;;6.73;5.57;;;;;;;;;;5032528;28;20181;-86
2022/06/16 05:58:10;;;;;;;7.00;5.53;;;;;;;;;;5031164;28;20511;-86
2022/06/16 06:01:23;;;;;;;7.03;6.00;;;;;;;;;;5053715;28;20216;-86
2022/06/16 06:04:33;;;;;;;6.77;6.00;;;;;;;;;;5031595;28;20192;-86
2022/06/16 06:18:17;;;;;;;7.13;6.07;;;;;;;;;;5042287;28;20180;-88
2022/06/16 06:24:46;;;;;;;6.93;6.23;;;;;;;;;;5074939;28;20183;-86
2022/06/16 06:28:01;;;;;;;9.43;6.57;;;;;;;;;;5063353;28;20204;-86
2022/06/16 06:31:05;;;;;;;8.07;5.73;;;;;;;;;;5054974;28;20227;-86
2022/06/16 06:34:09;;;;;;;8.67;6.60;;;;;;;;;;5031788;28;20184;-85
2022/06/16 06:37:16;;;;;;;7.07;6.37;;;;;;;;;;5042740;28;20180;-85
2022/06/16 06:40:24;;;;;;;10.43;7.17;;;;;;;;;;5042606;28;20215;-86
2022/06/16 06:43:28;;;;;;;8.00;6.33;;;;;;;;;;5051772;28;20176;-86
2022/06/16 06:46:33;;;;;;;6.67;6.00;;;;;;;;;;5049726;28;20183;-86
2022/06/16 06:50:29;;;;;;;10.23;6.40;;;;;;;;;;5039421;28;20220;-88
2022/06/16 06:53:32;;;;;;;8.73;5.90;;;;;;;;;;5042804;28;20187;-86
2022/06/16 06:56:38;;;;;;;9.40;7.03;;;;;;;;;;5042602;28;20169;-86
2022/06/16 06:59:43;;;;;;;7.30;5.70;;;;;;;;;;5051309;28;20219;-86
2022/06/16 07:02:48;;;;;;;5.90;5.30;;;;;;;;;;5052939;28;20184;-86
2022/06/16 07:05:52;;;;;;;9.93;5.83;;;;;;;;;;5030698;28;20172;-86
2022/06/16 07:08:57;;;;;;;8.10;5.50;;;;;;;;;;5030629;28;20176;-86
2022/06/16 07:12:01;;;;;;;8.80;6.23;;;;;;;;;;5061986;28;20181;-86
2022/06/16 07:15:06;;;;;;;7.67;5.67;;;;;;;;;;5059900;28;20195;-86
2022/06/16 07:18:10;;;;;;;8.27;5.67;;;;;;;;;;5041342;28;20189;-86
2022/06/16 07:21:15;;;;;;;8.70;5.40;;;;;;;;;;5053440;28;20217;-86
2022/06/16 07:24:20;;;;;;;5.80;5.20;;;;;;;;;;5030301;28;20201;-87
2022/06/16 07:27:24;;;;;;;6.57;4.73;;;;;;;;;;5039024;28;20214;-86
2022/06/16 07:30:28;;;;;;;8.30;5.43;;;;;;;;;;5068747;22;20229;-82
2022/06/16 07:33:32;;;;;;;8.67;5.17;;;;;;;;;;5038801;28;20528;-82
2022/06/16 07:36:36;;;;;;;10.97;5.50;;;;;;;;;;5046222;28;20183;-82
2022/06/16 07:39:41;;;;;;;5.97;4.95;;;;;;;;;;5026918;28;20183;-82
2022/06/16 07:42:45;;;;;;;8.07;4.70;;;;;;;;;;5056017;28;20177;-82
2022/06/16 07:45:49;;;;;;;5.80;4.10;;;;;;;;;;5034919;28;20179;-82
2022/06/16 07:48:54;;;;;;;8.20;4.68;;;;;;;;;;5057660;28;20210;-82
2022/06/16 07:51:58;;;;;;;11.00;4.55;;;;;;;;;;5048649;28;20214;-82
2022/06/16 07:55:03;;;;;;;6.88;4.28;;;;;;;;;;5039071;28;20206;-82
2022/06/16 07:58:07;;;;;;;7.75;4.00;;;;;;;;;;5056260;28;20184;-82
2022/06/16 08:01:11;;;;;;;5.40;4.30;;;;;;;;;;5033749;28;20227;-82
2022/06/16 08:04:15;;;;;;;6.10;4.28;;;;;;;;;;5039201;28;20195;-82
2022/06/16 08:07:20;;;;;;;7.93;4.25;;;;;;;;;;5032411;28;20214;-86
2022/06/16 08:10:26;;;;;;;7.38;4.07;;;;;;;;;;5032520;28;20212;-86
2022/06/16 08:13:31;;;;;;;5.57;4.00;;;;;;;;;;4997573;28;20211;-86
2022/06/16 08:16:35;;;;;;;7.30;3.60;;;;;;;;;;5032979;28;20183;-87
2022/06/16 08:19:40;;;;;;;5.72;4.15;;;;;;;;;;5056113;28;20176;-87
2022/06/16 08:22:44;;;;;;;5.57;3.63;;;;;;;;;;5029392;28;20200;-87
2022/06/16 08:25:49;;;;;;;4.35;3.72;;;;;;;;;;5032354;28;20196;-87
2022/06/16 08:28:55;;;;;;;7.32;3.97;;;;;;;;;;5043249;28;20208;-86
2022/06/16 08:31:59;;;;;;;4.90;3.60;;;;;;;;;;5043619;28;20224;-87
2022/06/16 08:35:04;;;;;;;5.75;4.32;;;;;;;;;;5043784;28;20631;-86
2022/06/16 08:38:08;;;;;;;7.50;4.18;;;;;;;;;;5043558;28;20192;-87
2022/06/16 08:41:28;;;;;;;8.07;4.60;;;;;;;;;;5032099;28;20686;-87
2022/06/16 08:45:01;;;;;;;5.55;3.63;;;;;;;;;;5003653;28;20202;-88
2022/06/16 08:48:36;;;;;;;4.95;3.80;;;;;;;;;;5006401;28;20209;-87
2022/06/16 08:52:15;;;;;;;4.32;3.92;;;;;;;;;;5032694;28;20220;-86
2022/06/16 08:55:34;;;;;;;7.95;4.00;;;;;;;;;;5033604;28;20189;-84
2022/06/16 08:59:00;;;;;;;7.80;4.43;;;;;;;;;;5024471;28;20184;-85
2022/06/16 09:02:09;;;;;;;4.88;3.92;;;;;;;;;;5042818;28;20566;-87
2022/06/16 09:05:16;;;;;;;4.68;3.60;;;;;;;;;;5045143;28;20181;-87
2022/06/16 09:08:45;;;;;;;4.63;3.80;;;;;;;;;;5044527;28;20228;-87
2022/06/16 09:12:04;;;;;;;5.38;3.60;;;;;;;;;;5043837;28;20223;-87
2022/06/16 09:15:20;;;;;;;7.00;3.97;;;;;;;;;;5044247;28;20185;-87
2022/06/16 09:18:51;;;;;;;6.28;4.30;;;;;;;;;;5030676;28;20177;-87
2022/06/16 09:22:05;;;;;;;6.28;3.83;;;;;;;;;;5014199;28;20224;-84
2022/06/16 09:25:21;;;;;;;5.38;4.13;;;;;;;;;;5015322;28;20213;-86
2022/06/16 09:28:35;;;;;;;7.15;3.63;;;;;;;;;;5010919;28;20217;-85
2022/06/16 09:31:52;;;;;;;5.85;3.72;;;;;;;;;;5036785;28;20219;-86
2022/06/16 09:35:02;;;;;;;5.20;3.65;;;;;;;;;;5020736;28;20187;-86
2022/06/16 09:38:14;;;;;;;4.45;3.15;;;;;;;;;;5017373;28;20183;-86
2022/06/16 09:45:09;;;;;;;6.43;3.70;;;;;;;;;;5035368;28;20192;-87
2022/06/16 09:48:21;;;;;;;3.05;2.75;;;;;;;;;;5006580;28;20219;-86
2022/06/16 09:51:33;;;;;;;3.78;2.80;;;;;;;;;;5006507;28;20576;-86
2022/06/16 09:54:51;;;;;;;4.40;2.72;;;;;;;;;;5022522;28;20208;-86
2022/06/16 09:58:01;;;;;;;3.95;2.67;;;;;;;;;;5009712;28;20184;-86
2022/06/16 10:01:09;;;;;;;7.28;2.50;;;;;;;;;;5007800;28;20242;-87
2022/06/16 10:04:14;;;;;;;3.85;2.50;;;;;;;;;;5018023;28;20201;-87
2022/06/16 10:07:28;;;;;;;5.57;2.88;;;;;;;;;;5004771;28;20619;-87
2022/06/16 10:10:45;;;;;;;6.47;2.85;;;;;;;;;;5002846;28;20688;-88
2022/06/16 10:13:58;;;;;;;6.68;3.05;;;;;;;;;;5022354;28;21450;-88
2022/06/16 10:17:07;;;;;;;4.63;2.42;;;;;;;;;;5021727;28;20188;-87
2022/06/16 10:20:14;;;;;;;2.80;2.50;;;;;;;;;;5008623;28;20197;-87
2022/06/16 10:23:27;;;;;;;5.32;3.20;;;;;;;;;;5012606;28;20209;-85
2022/06/16 10:26:31;;;;;;;5.65;2.60;;;;;;;;;;5009682;28;20190;-85
2022/06/16 10:29:35;;;;;;;5.38;2.88;;;;;;;;;;5010586;28;20204;-85
2022/06/16 10:32:44;;;;;;;3.83;3.00;;;;;;;;;;5013549;28;20201;-84
2022/06/16 10:35:56;;;;;;;3.25;2.28;;;;;;;;;;5016399;28;20198;-88
2022/06/16 10:39:34;;;;;;;3.55;2.58;;;;;;;;;;5020446;28;20648;-85
2022/06/16 10:42:51;;;;;;;4.57;2.40;;;;;;;;;;5012345;28;20181;-85
2022/06/16 10:46:10;;;;;;;4.30;2.40;;;;;;;;;;5023765;28;20182;-85
2022/06/16 10:49:19;;;;;;;3.97;2.47;;;;;;;;;;5015898;28;20229;-85
2022/06/16 10:52:29;;;;;;;4.85;2.40;;;;;;;;;;5023201;28;20193;-85
2022/06/16 10:55:43;;;;;;;5.93;2.63;;;;;;;;;;4993582;28;20205;-85
2022/06/16 10:58:56;;;;;;;3.25;2.30;;;;;;;;;;4991808;28;20637;-86
2022/06/16 11:02:14;;;;;;;3.47;2.40;;;;;;;;;;4995314;28;20563;-86
2022/06/16 11:05:18;;;;;;;5.22;2.45;;;;;;;;;;5018547;28;20185;-86
2022/06/16 11:08:31;;;;;;;4.20;2.38;;;;;;;;;;5019363;28;20201;-85
2022/06/16 11:11:52;;;;;;;2.90;2.53;;;;;;;;;;5006913;28;20684;-85
2022/06/16 11:15:03;;;;;;;4.03;2.53;;;;;;;;;;4995746;28;20185;-85
2022/06/16 11:18:12;;;;;;;3.35;2.63;;;;;;;;;;5006583;28;20625;-86
2022/06/16 11:21:28;;;;;;;6.95;2.83;;;;;;;;;;4994557;28;20217;-85
2022/06/16 11:24:33;;;;;;;5.07;2.42;;;;;;;;;;4997617;28;20190;-84
2022/06/16 11:27:46;;;;;;;3.10;2.78;;;;;;;;;;5044573;28;20196;-85
2022/06/16 11:30:50;;;;;;;5.50;2.90;;;;;;;;;;5029024;28;20228;-86
2022/06/16 11:34:14;;;;;;;3.30;2.67;;;;;;;;;;5023850;28;20663;-84
2022/06/16 11:37:44;;;;;;;4.68;2.55;;;;;;;;;;5017052;28;20194;-85
2022/06/16 11:40:54;;;;;;;4.78;2.50;;;;;;;;;;5006041;28;20221;-85
2022/06/16 11:44:09;;;;;;;9.18;2.65;;;;;;;;;;5019717;28;20174;-86
2022/06/16 11:47:42;;;;;;;3.08;2.17;;;;;;;;;;5005565;28;20545;-86
2022/06/16 11:51:12;;;;;;;3.03;2.20;;;;;;;;;;5023627;28;20217;-86
2022/06/16 11:54:30;;;;;;;7.65;2.25;;;;;;;;;;5035217;28;20192;-85
2022/06/16 11:57:50;;;;;;;4.38;2.50;;;;;;;;;;5013682;28;20193;-86
2022/06/16 12:01:00;;;;;;;5.32;2.53;;;;;;;;;;5026533;28;20220;-86
2022/06/16 12:04:39;;;;;;;3.05;2.05;;;;;;;;;;5036338;28;20645;-86
2022/06/16 12:07:52;;;;;;;3.25;2.35;;;;;;;;;;5025457;28;20193;-86
2022/06/16 12:11:21;;;;;;;6.22;1.90;;;;;;;;;;5012635;28;20692;-86
2022/06/16 12:14:32;;;;;;;3.65;2.20;;;;;;;;;;5035373;28;20657;-86
2022/06/16 12:17:55;;;;;;;5.70;2.20;;;;;;;;;;5013404;28;20628;-86
2022/06/16 12:21:33;;;;;;;4.10;2.53;;;;;;;;;;5013102;28;20217;-86
2022/06/16 12:24:37;;;;;;;3.88;2.50;;;;;;;;;;5012785;28;20177;-86
2022/06/16 12:28:03;;;;;;;3.53;2.65;;;;;;;;;;5024193;28;20173;-86
2022/06/16 12:31:22;;;;;;;3.42;2.35;;;;;;;;;;5023654;28;20224;-86
2022/06/16 12:34:42;;;;;;;2.58;2.10;;;;;;;;;;5012647;28;20182;-86
2022/06/16 12:37:56;;;;;;;6.45;2.30;;;;;;;;;;5023937;28;20185;-86
2022/06/16 12:41:05;;;;;;;3.25;2.25;;;;;;;;;;5035220;28;20213;-86
2022/06/16 12:44:18;;;;;;;4.93;2.55;;;;;;;;;;5012161;28;20193;-86
2022/06/16 12:47:26;;;;;;;2.55;2.35;;;;;;;;;;5035160;28;20186;-86
2022/06/16 12:50:45;;;;;;;4.45;2.33;;;;;;;;;;5012323;28;20221;-86
2022/06/16 12:53:57;;;;;;;5.22;2.95;;;;;;;;;;5012413;28;20181;-86
2022/06/16 12:57:07;;;;;;;5.65;2.63;;;;;;;;;;5012551;28;20185;-86
2022/06/16 13:00:16;;;;;;;7.57;2.60;;;;;;;;;;5023461;28;20624;-86
2022/06/16 13:03:41;;;;;;;7.75;2.40;;;;;;;;;;5012726;28;20181;-86
2022/06/16 13:06:46;;;;;;;6.60;2.50;;;;;;;;;;5012120;28;20181;-86
2022/06/16 13:09:50;;;;;;;6.68;2.50;;;;;;;;;;5024325;28;20217;-86
2022/06/16 13:12:56;;;;;;;5.43;2.50;;;;;;;;;;5012767;28;20185;-86
2022/06/16 13:16:02;;;;;;;4.80;2.42;;;;;;;;;;5012006;28;20197;-86
2022/06/16 13:19:09;;;;;;;6.50;2.50;;;;;;;;;;5011545;28;20174;-86
2022/06/16 13:22:29;;;;;;;3.97;2.28;;;;;;;;;;5024175;28;20703;-87
2022/06/16 13:25:51;;;;;;;6.68;2.75;;;;;;;;;;5011524;28;20189;-87
2022/06/16 13:29:17;;;;;;;3.78;2.30;;;;;;;;;;5023107;28;20209;-87
2022/06/16 13:32:34;;;;;;;8.52;2.72;;;;;;;;;;5064583;23;20232;-87
2022/06/16 13:35:38;;;;;;;5.50;2.95;;;;;;;;;;5057637;28;20177;-87
2022/06/16 13:38:45;;;;;;;11.73;3.15;;;;;;;;;;5046304;28;20181;-87
2022/06/16 13:42:13;;;;;;;6.65;2.90;;;;;;;;;;5059885;28;20216;-87
2022/06/16 13:45:32;;;;;;;4.82;3.00;;;;;;;;;;5058080;28;20184;-87
2022/06/16 13:48:49;;;;;;;3.65;2.90;;;;;;;;;;5036444;28;20184;-87
2022/06/16 13:52:05;;;;;;;5.93;2.63;;;;;;;;;;5035914;28;20217;-87
2022/06/16 13:55:24;;;;;;;6.90;2.78;;;;;;;;;;5046828;28;20181;-87
2022/06/16 13:58:30;;;;;;;6.07;2.92;;;;;;;;;;5046824;28;20180;-87
2022/06/16 14:01:59;;;;;;;5.70;3.10;;;;;;;;;;5032313;28;20216;-87
2022/06/16 14:05:08;;;;;;;9.32;2.50;;;;;;;;;;5031671;28;20188;-87
2022/06/16 14:08:15;;;;;;;5.75;2.50;;;;;;;;;;5032800;28;20667;-87
2022/06/16 14:11:29;;;;;;;5.78;2.65;;;;;;;;;;5055151;28;20212;-87
2022/06/16 14:14:53;;;;;;;4.95;2.58;;;;;;;;;;5041957;28;20223;-87
2022/06/16 14:18:13;;;;;;;4.85;2.47;;;;;;;;;;5030785;28;20189;-87
2022/06/16 14:21:22;;;;;;;4.60;2.60;;;;;;;;;;5034244;28;20687;-87
2022/06/16 14:24:44;;;;;;;5.80;2.60;;;;;;;;;;5042877;28;20181;-87
2022/06/16 14:27:57;;;;;;;3.35;2.22;;;;;;;;;;5054484;28;20181;-87
2022/06/16 14:31:24;;;;;;;7.65;2.53;;;;;;;;;;5041719;28;20228;-87
2022/06/16 14:34:36;;;;;;;5.90;2.80;;;;;;;;;;5030293;28;20185;-87
2022/06/16 14:37:48;;;;;;;7.72;2.80;;;;;;;;;;5041949;28;20181;-87
2022/06/16 14:41:12;;;;;;;5.45;2.72;;;;;;;;;;5042541;28;20212;-87
2022/06/16 14:44:19;;;;;;;3.53;2.90;;;;;;;;;;5041936;28;20185;-87
2022/06/16 14:47:33;;;;;;;5.18;3.20;;;;;;;;;;5041898;28;20659;-87
2022/06/16 14:50:48;;;;;;;4.32;3.13;;;;;;;;;;5041849;28;20212;-87
2022/06/16 14:54:09;;;;;;;3.70;2.92;;;;;;;;;;5044984;28;20624;-87
2022/06/16 14:57:25;;;;;;;5.88;2.85;;;;;;;;;;5046050;28;20188;-87
2022/06/16 15:00:40;;;;;;;6.70;2.97;;;;;;;;;;5031994;28;20173;-86
2022/06/16 15:03:46;;;;;;;5.82;2.88;;;;;;;;;;5030000;28;20185;-86
2022/06/16 15:06:55;;;;;;;5.78;2.83;;;;;;;;;;5030911;28;20181;-86
2022/06/16 15:10:00;;;;;;;3.50;2.60;;;;;;;;;;5041133;28;20691;-86
2022/06/16 15:13:07;;;;;;;7.32;2.72;;;;;;;;;;5041209;28;20184;-87
2022/06/16 15:18:10;;;;;;;6.70;2.70;;;;;;;;;;5052714;28;20180;-87
2022/06/16 15:19:47;;;;;;;4.88;2.80;;;;;;;;;;5052534;28;20196;-87
2022/06/16 15:22:54;;;;;;;6.85;2.53;;;;;;;;;;5044325;28;20181;-86
2022/06/16 15:26:00;;;;;;;3.58;2.35;;;;;;;;;;5041032;28;20189;-87
2022/06/16 15:29:14;;;;;;;3.90;2.80;;;;;;;;;;5030015;28;20189;-86
2022/06/16 15:39:10;;;;;;;7.28;2.75;;;;;;;;;;5041413;28;20177;-86
2022/06/16 15:42:19;;;;;;;6.13;2.70;;;;;;;;;;5052463;28;20220;-86
2022/06/16 15:45:23;;;;;;;6.88;2.92;;;;;;;;;;5049414;28;20207;-86
2022/06/16 15:48:33;;;;;;;4.53;2.40;;;;;;;;;;5020272;28;20195;-87
2022/06/16 15:51:42;;;;;;;5.65;2.30;;;;;;;;;;5037969;28;20227;-86
2022/06/16 15:54:48;;;;;;;4.95;2.30;;;;;;;;;;5045403;28;20192;-86
2022/06/16 15:57:55;;;;;;;5.85;2.33;;;;;;;;;;5014972;28;20187;-86
2022/06/16 16:01:01;;;;;;;5.90;2.90;;;;;;;;;;5030603;28;20224;-85
2022/06/16 16:04:08;;;;;;;6.40;2.67;;;;;;;;;;5025295;28;20196;-87
2022/06/16 16:07:13;;;;;;;4.68;2.90;;;;;;;;;;5034273;28;20177;-84
2022/06/16 16:10:22;;;;;;;6.15;2.42;;;;;;;;;;5037283;28;20685;-88
2022/06/16 16:13:27;;;;;;;2.78;2.47;;;;;;;;;;5016295;28;20195;-86
2022/06/16 16:16:33;;;;;;;7.60;2.80;;;;;;;;;;5024118;28;20199;-86
2022/06/16 16:19:57;;;;;;;4.47;2.53;;;;;;;;;;5057257;28;20177;-86
2022/06/16 16:23:05;;;;;;;3.85;2.70;;;;;;;;;;5048942;28;20532;-86
2022/06/16 16:26:10;;;;;;;5.45;2.28;;;;;;;;;;5056832;28;20634;-86
2022/06/16 16:29:20;;;;;;;7.60;2.70;;;;;;;;;;5057020;28;20186;-86
2022/06/16 16:32:29;;;;;;;7.43;2.67;;;;;;;;;;5055044;28;20237;-86
2022/06/16 16:35:33;;;;;;;7.88;2.80;;;;;;;;;;5037652;28;20198;-87
2022/06/16 16:38:41;;;;;;;5.82;2.60;;;;;;;;;;5038376;28;20182;-87
2022/06/16 16:45:37;;;;;;;6.35;2.53;;;;;;;;;;5024154;28;20189;-87
2022/06/16 16:48:51;;;;;;;4.47;2.55;;;;;;;;;;5018533;28;20195;-87
2022/06/16 16:51:55;;;;;;;6.47;3.22;;;;;;;;;;5049793;28;20689;-87
2022/06/16 16:55:19;;;;;;;4.75;2.80;;;;;;;;;;5024221;28;20182;-87
2022/06/16 16:58:23;;;;;;;4.28;2.65;;;;;;;;;;5015157;28;20194;-88
2022/06/16 17:01:30;;;;;;;5.18;2.85;;;;;;;;;;5024445;28;20691;-86
2022/06/16 17:04:39;;;;;;;6.70;2.58;;;;;;;;;;5036256;28;20517;-86
2022/06/16 17:07:43;;;;;;;5.32;2.63;;;;;;;;;;5024577;28;20640;-86
2022/06/16 17:11:50;;;;;;;6.25;2.85;;;;;;;;;;5036320;28;20230;-86
2022/06/16 17:14:13;;;;;;;9.77;3.08;;;;;;;;;;5053376;28;20200;-87
2022/06/16 17:17:22;;;;;;;7.70;2.53;;;;;;;;;;5026528;28;20286;-86
2022/06/16 17:20:26;;;;;;;5.38;2.83;;;;;;;;;;5038746;28;20181;-86
2022/06/16 17:23:31;;;;;;;7.30;2.70;;;;;;;;;;5027241;28;20180;-85
2022/06/16 17:26:35;;;;;;;5.68;2.85;;;;;;;;;;5031950;28;20182;-86
2022/06/16 17:29:39;;;;;;;5.18;2.35;;;;;;;;;;5028288;28;20193;-85
2022/06/16 17:32:44;;;;;;;5.40;2.60;;;;;;;;;;5022540;28;20220;-86
2022/06/16 17:35:48;;;;;;;2.95;2.63;;;;;;;;;;5011787;28;20178;-86
2022/06/16 17:38:54;;;;;;;3.95;2.67;;;;;;;;;;5022883;28;20633;-86
2022/06/16 17:41:59;;;;;;;5.60;2.55;;;;;;;;;;5041210;28;20217;-86
2022/06/16 17:45:09;;;;;;;9.90;2.83;;;;;;;;;;5042974;28;20180;-86
2022/06/16 17:48:13;;;;;;;5.93;2.85;;;;;;;;;;5031258;28;20675;-86
2022/06/16 17:51:19;;;;;;;7.45;2.72;;;;;;;;;;5036470;28;20715;-86
2022/06/16 18:01:13;;;;;;;7.00;2.90;;;;;;;;;;5049137;28;20219;-86
2022/06/16 18:04:17;;;;;;;6.93;2.80;;;;;;;;;;5028353;28;20534;-88
2022/06/16 18:07:23;;;;;;;6.60;2.80;;;;;;;;;;5033713;28;20199;-87
2022/06/16 18:10:31;;;;;;;7.07;2.80;;;;;;;;;;5010655;28;20202;-87
2022/06/16 18:13:39;;;;;;;6.83;2.70;;;;;;;;;;5033229;28;20194;-86
2022/06/16 18:16:44;;;;;;;4.43;2.80;;;;;;;;;;5041782;28;20179;-88
2022/06/16 18:19:48;;;;;;;3.40;2.63;;;;;;;;;;5025730;28;20186;-88
2022/06/16 18:22:52;;;;;;;5.97;2.53;;;;;;;;;;5044489;28;20192;-87
2022/06/16 18:25:56;;;;;;;6.97;2.80;;;;;;;;;;5050482;28;20185;-87
2022/06/16 18:29:02;;;;;;;6.87;2.60;;;;;;;;;;5010684;28;20184;-87
2022/06/16 18:32:07;;;;;;;3.53;2.40;;;;;;;;;;5034071;28;20225;-88
2022/06/16 18:35:23;;;;;;;4.90;2.63;;;;;;;;;;5020601;28;20186;-87
2022/06/16 18:38:27;;;;;;;5.50;2.40;;;;;;;;;;5042712;28;20193;-87
2022/06/16 18:41:34;;;;;;;7.00;2.60;;;;;;;;;;5034102;28;20569;-87
2022/06/16 18:44:39;;;;;;;6.10;2.63;;;;;;;;;;5041241;28;20192;-87
2022/06/16 18:47:44;;;;;;;7.00;2.43;;;;;;;;;;5036407;28;20215;-86
2022/06/16 18:50:48;;;;;;;6.83;2.00;;;;;;;;;;5010294;28;20230;-87
2022/06/16 18:53:53;;;;;;;3.93;2.37;;;;;;;;;;5047587;28;20230;-87
2022/06/16 18:56:57;;;;;;;7.20;3.50;;;;;;;;;;5051194;28;20180;-87
2022/06/16 19:00:09;;;;;;;2.73;2.17;;;;;;;;;;5014660;28;20190;-87
2022/06/16 19:03:17;;;;;;;7.13;2.43;;;;;;;;;;5048000;28;20188;-89
2022/06/16 19:06:21;;;;;;;3.50;2.50;;;;;;;;;;5016659;28;20540;-88
2022/06/16 19:09:25;;;;;;;2.87;2.17;;;;;;;;;;5030129;28;20184;-87
2022/06/16 19:12:30;;;;;;;4.83;2.73;;;;;;;;;;5021309;28;20569;-87
2022/06/16 19:15:38;;;;;;;6.67;2.40;;;;;;;;;;5022450;28;20193;-87
2022/06/16 19:18:47;;;;;;;2.67;2.40;;;;;;;;;;5021282;28;20181;-87
2022/06/16 19:21:59;;;;;;;3.00;2.23;;;;;;;;;;5051539;28;20571;-87
2022/06/16 19:25:03;;;;;;;3.20;2.47;;;;;;;;;;5044266;28;20188;-87
2022/06/16 19:28:09;;;;;;;6.33;2.63;;;;;;;;;;5033805;28;20200;-87
2022/06/16 19:31:16;;;;;;;5.73;2.50;;;;;;;;;;5092629;22;20210;-84
2022/06/16 19:34:21;;;;;;;3.33;2.60;;;;;;;;;;5067478;28;20637;-85
2022/06/16 19:37:25;;;;;;;6.53;2.63;;;;;;;;;;5067072;28;20195;-85
2022/06/16 19:40:29;;;;;;;6.47;2.67;;;;;;;;;;5066726;28;20175;-85
2022/06/16 19:53:48;;;;;;;4.67;2.60;;;;;;;;;;5057337;28;20188;-84
2022/06/16 19:56:53;;;;;;;3.13;2.60;;;;;;;;;;5045820;28;20176;-84
2022/06/16 19:59:57;;;;;;;3.70;2.60;;;;;;;;;;5057129;28;20176;-85